Latest Coastal Weather Observations for Lockhart River

IDQ60701

Issued at 1:35 am EST Thursday 18 September 2014 (issued every 10 minutes, with the page automatically refreshed every 10 minutes)

About coastal observations | Map of coastal stations | Coastal observations for QLD | Marine services | Other Formats
Station Details ID: 028008 Name: LOCKHART RIVER AIRPORT Lat: -12.79 Lon: 143.30 Height: 18.5 m
Data from the previous 72 hours. | See also: Recent months at Lockhart River
Date/Time
EST
Temp

°C
Wind Pressure Rain
since 9am
mm
Weather Cloud Vis
km
Sea
Height
m
Swell
Dir
 
Speed
knots
Gust
knots
hPa Trend Height
m
Period
s
Dir
18/01:30am 16.0 W 0 0 1015.5 - 0.0 - Partly cloudy - - - - -
18/01:00am 16.1 CALM 0 0 1016.0 - 0.0 - Partly cloudy - - - - -
18/12:30am 16.5 CALM 0 0 1016.2 - 0.0 - Partly cloudy - - - - -
18/12:00am 16.9 W 0 0 1016.3 - 0.0 - - - - - - -
 
Date/Time
EST
Temp

°C
Wind Pressure Rain
since 9am
mm
Weather Cloud Vis
km
Sea
Height
m
Swell
Dir
 
Speed
knots
Gust
knots
hPa Trend Height
m
Period
s
Dir
17/11:30pm 17.2 CALM 0 0 1016.5 - 0.0 - - - - - - -
17/11:00pm 17.5 CALM 0 0 1016.5 - 0.0 - - - - - - -
17/10:30pm 17.6 CALM 0 0 1016.5 - 0.0 - - - - - - -
17/10:00pm 18.0 CALM 0 0 1016.3 - 0.0 - - - - - - -
17/09:30pm 18.5 CALM 0 0 1016.1 - 0.0 - - - - - - -
17/09:00pm 19.2 CALM 0 0 1015.6 - 0.0 - - - - - - -
17/08:30pm 20.3 CALM 0 0 1015.4 - 0.0 - - - - - - -
17/08:00pm 21.4 SE 1 4 1015.2 - 0.0 - - - - - - -
17/07:30pm 23.0 SE 4 5 1014.8 - 0.0 - - - - - - -
17/07:00pm 23.5 ESE 4 5 1014.5 - 0.0 - - - - - - -
17/06:30pm 23.9 ESE 7 10 1014.1 - 0.0 - - - - - - -
17/06:00pm 24.9 ESE 8 11 1013.6 - 0.0 - - - - - - -
17/05:30pm 25.9 ESE 8 11 1013.7 - 0.0 - - - - - - -
17/05:00pm 26.5 E 10 14 1013.7 - 0.0 - - - - - - -
17/04:30pm 26.5 E 11 17 1013.6 - 0.0 - - - - - - -
17/04:00pm 27.5 SE 13 17 1013.5 - 0.0 - - - - - - -
17/03:30pm 27.2 E 12 19 1013.4 - 0.0 - - - - - - -
17/03:00pm 28.3 ESE 13 18 1013.4 - 0.0 Fine Partly cloudy 20 - - - -
17/02:30pm 27.9 ESE 12 19 1013.7 - 0.0 - - - - - - -
17/02:00pm 27.9 ESE 13 19 1013.6 - 0.0 - - - - - - -
17/01:30pm 28.6 E 12 18 1014.0 - 0.0 - - - - - - -
17/01:00pm 28.3 ESE 14 21 1014.4 - 0.0 - - - - - - -
17/12:30pm 28.2 ESE 14 20 1014.7 - 0.0 - - - - - - -
17/12:00pm 29.1 SE 13 18 1015.2 - 0.0 - - - - - - -
17/11:30am 28.0 E 10 16 1015.7 - 0.0 - - - - - - -
17/11:00am 27.7 E 10 17 1015.9 - 0.0 - - - - - - -
17/10:30am 27.8 ESE 11 15 1016.2 - 0.0 - - - - - - -
17/10:00am 27.6 E 10 17 1016.4 - 0.0 - - - - - - -
17/09:30am 27.1 ESE 13 18 1016.5 - 0.0 - Partly cloudy - - - - -
17/09:00am 26.1 E 11 17 1016.2 - 0.0 Fine Partly cloudy 20 - - - -
17/08:30am 23.9 SSE 4 7 1016.2 - 0.0 - - - - - - -
17/08:00am 21.2 CALM 0 0 1016.0 - 0.0 - - - - - - -
17/07:30am 19.2 CALM 0 0 1015.6 - 0.0 - - - - - - -
17/07:00am 17.7 CALM 0 0 1015.2 - 0.0 - - - - - - -
17/06:30am 17.1 CALM 0 0 1014.8 - 0.0 - Partly cloudy - - - - -
17/06:00am 16.9 CALM 0 0 1014.4 - 0.0 - Partly cloudy - - - - -
17/05:30am 17.2 CALM 0 0 1013.9 - 0.0 - - - - - - -
17/05:00am 17.8 CALM 0 0 1013.5 - 0.0 - Partly cloudy - - - - -
17/04:30am 18.1 CALM 0 0 1013.4 - 0.0 - - - - - - -
17/04:00am 18.4 CALM 0 0 1013.4 - 0.0 - Partly cloudy - - - - -
17/03:30am 18.8 CALM 0 0 1013.6 - 0.0 - Partly cloudy - - - - -
17/03:00am 19.2 CALM 0 0 1013.6 - 0.0 - Partly cloudy - - - - -
17/02:30am 19.8 CALM 0 0 1013.9 - 0.0 - Partly cloudy - - - - -
17/02:00am 20.5 CALM 0 0 1014.1 - 0.0 - Partly cloudy - - - - -
17/01:30am 22.4 S 2 4 1014.2 - 0.0 - Partly cloudy - - - - -
17/01:00am 22.9 SE 4 7 1014.3 - 0.0 - Partly cloudy - - - - -
17/12:30am 23.1 SE 6 8 1014.5 - 0.0 - Partly cloudy - - - - -
17/12:00am 23.4 ESE 7 9 1014.5 - 0.0 - Partly cloudy - - - - -
 
Date/Time
EST
Temp

°C
Wind Pressure Rain
since 9am
mm
Weather Cloud Vis
km
Sea
Height
m
Swell
Dir
 
Speed
knots
Gust
knots
hPa Trend Height
m
Period
s
Dir
16/11:30pm 23.5 ESE 6 9 1014.8 - 0.0 - Partly cloudy - - - - -
16/11:00pm 23.3 SE 5 8 1015.0 - 0.0 - Partly cloudy - - - - -
16/10:30pm 23.6 SE 8 10 1014.9 - 0.0 - Partly cloudy - - - - -
16/10:00pm 23.6 ESE 7 10 1014.9 - 0.0 - Partly cloudy - - - - -
16/09:30pm 23.6 ESE 7 10 1014.8 - 0.0 - Partly cloudy - - - - -
16/09:00pm 23.8 ESE 7 10 1014.4 - 0.0 - Partly cloudy - - - - -
16/08:30pm 23.6 ESE 6 9 1014.3 - 0.0 - Partly cloudy - - - - -
16/08:00pm 23.6 ESE 7 11 1013.9 - 0.0 - Partly cloudy - - - - -
16/07:30pm 23.6 ESE 5 8 1013.5 - 0.0 - Partly cloudy - - - - -
16/07:00pm 24.0 ESE 9 13 1013.3 - 0.0 - Partly cloudy - - - - -
16/06:30pm 24.2 ESE 9 12 1012.9 - 0.0 - - - - - - -
16/06:00pm 24.7 ESE 8 11 1012.6 - 0.0 - - - - - - -
16/05:30pm 25.0 E 10 13 1012.6 - 0.0 - Partly cloudy - - - - -
16/05:00pm 25.7 E 11 17 1012.4 - 0.0 - Partly cloudy - - - - -
16/04:30pm 26.4 ESE 12 16 1012.2 - 0.0 - Partly cloudy - - - - -
16/04:00pm 26.2 E 11 17 1011.9 - 0.0 - Partly cloudy - - - - -
16/03:30pm 26.4 E 12 18 1011.9 - 0.0 - Partly cloudy - - - - -
16/03:00pm 26.9 E 11 17 1012.1 - 0.0 Fine Partly cloudy 30 - - - -
16/02:30pm 27.4 E 10 16 1012.4 - 0.0 - Partly cloudy - - - - -
16/02:00pm 27.8 E 12 18 1012.8 - 0.0 - - - - - - -
16/01:30pm 28.4 ESE 11 18 1013.0 - 0.0 - - - - - - -
16/01:00pm 27.5 ESE 13 19 1013.3 - 0.0 - - - - - - -
16/12:30pm 27.5 E 13 18 1013.7 - 0.0 - - - - - - -
16/12:00pm 28.0 ESE 12 16 1014.0 - 0.0 - - - - - - -
16/11:30am 27.9 ESE 13 19 1014.6 - 0.0 - - - - - - -
16/11:00am 27.9 ESE 13 19 1014.9 - 0.0 - - - - - - -
16/10:30am 27.0 ESE 11 16 1015.4 - 0.0 - Partly cloudy - - - - -
16/10:00am 27.2 ESE 12 17 1015.6 - 0.0 - Partly cloudy - - - - -
16/09:30am 28.1 ESE 13 19 1015.7 - 0.0 - Partly cloudy - - - - -
16/09:00am 26.3 ESE 10 14 1015.7 - 0.0 Fine Partly cloudy 30 - - - -
16/08:30am 24.7 SSE 6 9 1015.6 - 0.0 - Partly cloudy - - - - -
16/08:00am 22.1 CALM 0 0 1015.5 - 0.0 - - - - - - -
16/07:30am 19.6 CALM 0 0 1015.2 - 0.0 - - - - - - -
16/07:00am 17.6 CALM 0 0 1014.8 - 0.0 - Partly cloudy - - - - -
16/06:30am 16.9 CALM 0 0 1014.3 - 0.0 - Partly cloudy - - - - -
16/06:00am 16.9 CALM 0 0 1013.9 - 0.0 - Partly cloudy - - - - -
16/05:30am 17.0 CALM 0 0 1013.7 - 0.0 - - - - - - -
16/05:00am 17.2 CALM 0 0 1013.5 - 0.0 - - - - - - -
16/04:30am 17.4 CALM 0 0 1013.3 - 0.0 - Partly cloudy - - - - -
16/04:00am 17.8 CALM 0 0 1013.3 - 0.0 - - - - - - -
16/03:30am 17.9 CALM 0 0 1013.1 - 0.0 - Partly cloudy - - - - -
16/03:00am 18.2 CALM 0 0 1013.1 - 0.0 - Partly cloudy - - - - -
16/02:30am 18.6 CALM 0 0 1013.4 - 0.0 - Partly cloudy - - - - -
16/02:00am 19.0 CALM 0 0 1013.7 - 0.0 - Partly cloudy - - - - -
16/01:30am 19.5 CALM 0 0 1013.7 - 0.0 - Partly cloudy - - - - -
16/01:00am 21.4 S 4 5 1013.9 - 0.0 - Partly cloudy - - - - -
16/12:30am 22.5 SE 5 7 1014.1 - 0.0 - Partly cloudy - - - - -
16/12:00am 23.1 SE 6 9 1014.1 - 0.0 - Partly cloudy - - - - -
 
Date/Time
EST
Temp

°C
Wind Pressure Rain
since 9am
mm
Weather Cloud Vis
km
Sea
Height
m
Swell
Dir
 
Speed
knots
Gust
knots
hPa Trend Height
m
Period
s
Dir
15/11:30pm 23.4 ESE 6 9 1014.5 - 0.0 - Partly cloudy - - - - -
15/11:00pm 23.4 ESE 7 10 1014.6 - 0.0 - Partly cloudy - - - - -
15/10:30pm 23.3 ESE 6 9 1014.5 - 0.0 - Partly cloudy - - - - -
15/10:00pm 23.4 ESE 7 11 1014.3 - 0.0 - Partly cloudy - - - - -
15/09:30pm 23.3 ESE 6 9 1014.3 - 0.0 - Partly cloudy - - - - -
15/09:00pm 23.1 ESE 6 8 1013.9 - 0.0 - Partly cloudy - - - - -
15/08:30pm 22.8 SE 5 7 1013.8 - 0.0 - Partly cloudy - - - - -
15/08:00pm 23.1 ESE 5 7 1013.4 - 0.0 - Partly cloudy - - - - -
15/07:30pm 23.4 ESE 8 11 1012.9 - 0.0 - - - - - - -
15/07:00pm 23.5 ESE 8 10 1012.7 - 0.0 - Partly cloudy - - - - -
15/06:30pm 23.8 ESE 9 11 1012.5 - 0.0 - - - - - - -
15/06:00pm 24.4 ESE 9 13 1012.1 - 0.0 - - - - - - -
15/05:30pm 25.3 ESE 10 13 1012.1 - 0.0 - - - - - - -
15/05:00pm 25.7 ESE 10 14 1012.1 - 0.0 - - - - - - -
15/04:30pm 26.4 ESE 10 18 1012.1 - 0.0 - - - - - - -
15/04:00pm 26.8 ESE 11 17 1012.1 - 0.0 - Partly cloudy - - - - -
15/03:30pm 27.6 SE 13 20 1012.0 - 0.0 - Partly cloudy - - - - -
15/03:00pm 26.7 ESE 15 21 1012.0 - 0.0 Fine Partly cloudy 15 - - - -
15/02:30pm 27.2 E 14 20 1012.4 - 0.0 - - - - - - -
15/02:00pm 27.9 SE 15 21 1012.6 - 0.0 - Partly cloudy - - - - -
15/01:30pm 27.5 E 13 20 1012.9 - 0.0 - Partly cloudy - - - - -
15/01:00pm 28.8 ESE 12 19 1013.2 - 0.0 - Partly cloudy - - - - -
15/12:30pm 28.2 E 13 19 1013.7 - 0.0 - Partly cloudy - - - - -
15/12:00pm 27.6 ESE 13 20 1014.0 - 0.0 - Partly cloudy - - - - -
15/11:46am 27.9 ESE 15 25 1014.3 - 0.0 - Partly cloudy - - - - -
15/11:30am 28.3 SE 14 22 1014.5 - 0.0 - Partly cloudy - - - - -
15/11:00am 26.9 SE 16 22 1014.8 - 0.0 - Partly cloudy - - - - -
15/10:30am 26.1 ESE 15 22 1015.1 - 0.0 - Partly cloudy - - - - -
15/10:00am 26.7 ESE 14 20 1015.1 - 0.0 - Partly cloudy - - - - -
15/09:30am 26.0 ESE 14 20 1015.2 - 0.0 - Partly cloudy - - - - -
15/09:00am 26.4 SE 15 20 1015.0 - 0.0 Fine Partly cloudy 25 - - - -
15/08:30am 25.2 SE 15 18 1014.9 - 0.0 - Partly cloudy - - - - -
15/08:00am 25.0 ESE 11 17 1014.7 - 0.0 - Partly cloudy - - - - -
15/07:30am 23.9 ESE 9 13 1014.3 - 0.0 - Partly cloudy - - - - -
15/07:00am 22.7 SE 6 9 1014.1 - 0.0 - Partly cloudy - - - - -
15/06:30am 21.5 SE 4 5 1013.6 - 0.0 - Partly cloudy - - - - -
15/06:00am 21.6 SSE 5 6 1013.3 - 0.0 - Partly cloudy - - - - -
15/05:30am 21.8 SE 5 7 1013.1 - 0.0 - - - - - - -
15/05:00am 22.3 SE 6 9 1012.9 - 0.0 - Partly cloudy - - - - -
15/04:30am 22.6 ESE 8 11 1012.9 - 0.0 - Partly cloudy - - - - -
15/04:00am 22.8 SE 8 11 1012.8 - 0.0 - Partly cloudy - - - - -
15/03:30am 23.0 ESE 8 12 1012.7 - 0.0 - Partly cloudy - - - - -
15/03:00am 22.8 ESE 8 13 1012.8 - 0.0 - Partly cloudy - - - - -
15/02:30am 23.2 ESE 9 15 1013.0 - 0.0 - Partly cloudy - - - - -
15/02:00am 23.2 ESE 9 13 1013.2 - 0.0 - Partly cloudy - - - - -

Other Formats:

Comma delimited format used in spreadsheet applications
http://www.bom.gov.au/fwo/IDQ60701/IDQ60701.94186.axf

JavaScript Object Notation format (JSON) in row-major order
http://www.bom.gov.au/fwo/IDQ60701/IDQ60701.94186.json